sensor_id;sensor_type;location;lat;lon;timestamp;P1;durP1;ratioP1;P2;durP2;ratioP2
15958;SDS011;8078;47.822;9.402;2023-04-24T00:01:49;660.63;;;48.70;;
15958;SDS011;8078;47.822;9.402;2023-04-24T00:04:15;910.80;;;69.77;;
15958;SDS011;8078;47.822;9.402;2023-04-24T00:06:42;899.20;;;75.33;;
15958;SDS011;8078;47.822;9.402;2023-04-24T00:09:08;557.40;;;44.00;;
15958;SDS011;8078;47.822;9.402;2023-04-24T00:11:37;824.87;;;68.07;;
15958;SDS011;8078;47.822;9.402;2023-04-24T00:14:03;519.07;;;40.33;;
15958;SDS011;8078;47.822;9.402;2023-04-24T00:16:28;809.83;;;69.73;;
15958;SDS011;8078;47.822;9.402;2023-04-24T00:18:54;461.90;;;38.77;;
15958;SDS011;8078;47.822;9.402;2023-04-24T00:21:20;44.07;;;12.73;;
15958;SDS011;8078;47.822;9.402;2023-04-24T00:23:46;44.13;;;14.33;;
15958;SDS011;8078;47.822;9.402;2023-04-24T00:26:12;441.93;;;36.53;;
15958;SDS011;8078;47.822;9.402;2023-04-24T00:28:38;691.87;;;58.73;;
15958;SDS011;8078;47.822;9.402;2023-04-24T00:31:04;314.03;;;28.83;;
15958;SDS011;8078;47.822;9.402;2023-04-24T00:33:29;330.57;;;30.47;;
15958;SDS011;8078;47.822;9.402;2023-04-24T00:35:55;152.63;;;21.13;;
15958;SDS011;8078;47.822;9.402;2023-04-24T00:38:20;29.93;;;12.87;;
15958;SDS011;8078;47.822;9.402;2023-04-24T00:40:47;25.37;;;12.83;;
15958;SDS011;8078;47.822;9.402;2023-04-24T00:43:13;284.67;;;29.20;;
15958;SDS011;8078;47.822;9.402;2023-04-24T00:45:38;423.23;;;35.23;;
15958;SDS011;8078;47.822;9.402;2023-04-24T00:48:04;477.23;;;38.57;;
15958;SDS011;8078;47.822;9.402;2023-04-24T00:50:31;403.53;;;33.70;;
15958;SDS011;8078;47.822;9.402;2023-04-24T00:52:57;636.43;;;50.17;;
15958;SDS011;8078;47.822;9.402;2023-04-24T00:55:22;751.13;;;54.90;;
15958;SDS011;8078;47.822;9.402;2023-04-24T00:57:49;603.83;;;49.37;;
15958;SDS011;8078;47.822;9.402;2023-04-24T01:00:15;776.80;;;68.30;;
15958;SDS011;8078;47.822;9.402;2023-04-24T01:02:41;865.27;;;75.13;;
15958;SDS011;8078;47.822;9.402;2023-04-24T01:05:10;712.87;;;50.33;;
15958;SDS011;8078;47.822;9.402;2023-04-24T01:07:40;889.07;;;68.53;;
15958;SDS011;8078;47.822;9.402;2023-04-24T01:10:10;595.17;;;49.53;;
15958;SDS011;8078;47.822;9.402;2023-04-24T01:12:37;485.13;;;42.63;;
15958;SDS011;8078;47.822;9.402;2023-04-24T01:15:03;678.37;;;51.70;;
15958;SDS011;8078;47.822;9.402;2023-04-24T01:17:29;713.63;;;57.13;;
15958;SDS011;8078;47.822;9.402;2023-04-24T01:19:54;620.30;;;51.60;;
15958;SDS011;8078;47.822;9.402;2023-04-24T01:22:22;458.87;;;37.37;;
15958;SDS011;8078;47.822;9.402;2023-04-24T01:24:47;673.73;;;54.20;;
15958;SDS011;8078;47.822;9.402;2023-04-24T01:27:13;730.13;;;63.10;;
15958;SDS011;8078;47.822;9.402;2023-04-24T01:29:40;946.97;;;79.63;;
15958;SDS011;8078;47.822;9.402;2023-04-24T01:32:06;833.17;;;71.87;;
15958;SDS011;8078;47.822;9.402;2023-04-24T01:34:32;831.13;;;67.00;;
15958;SDS011;8078;47.822;9.402;2023-04-24T01:36:58;753.43;;;65.40;;
15958;SDS011;8078;47.822;9.402;2023-04-24T01:39:24;773.13;;;66.23;;
15958;SDS011;8078;47.822;9.402;2023-04-24T01:41:50;854.07;;;66.50;;
15958;SDS011;8078;47.822;9.402;2023-04-24T01:44:17;745.10;;;61.63;;
15958;SDS011;8078;47.822;9.402;2023-04-24T01:46:43;566.80;;;44.20;;
15958;SDS011;8078;47.822;9.402;2023-04-24T01:49:09;238.27;;;24.83;;
15958;SDS011;8078;47.822;9.402;2023-04-24T01:51:35;25.07;;;13.70;;
15958;SDS011;8078;47.822;9.402;2023-04-24T01:54:00;91.23;;;17.30;;
15958;SDS011;8078;47.822;9.402;2023-04-24T01:56:26;177.30;;;21.00;;
15958;SDS011;8078;47.822;9.402;2023-04-24T01:58:54;52.73;;;13.67;;
15958;SDS011;8078;47.822;9.402;2023-04-24T02:01:21;17.93;;;12.57;;
15958;SDS011;8078;47.822;9.402;2023-04-24T02:03:48;223.70;;;23.23;;
15958;SDS011;8078;47.822;9.402;2023-04-24T02:06:14;323.70;;;29.07;;
15958;SDS011;8078;47.822;9.402;2023-04-24T02:08:39;589.27;;;46.50;;
15958;SDS011;8078;47.822;9.402;2023-04-24T02:11:05;806.60;;;64.10;;
15958;SDS011;8078;47.822;9.402;2023-04-24T02:13:31;281.30;;;27.77;;
15958;SDS011;8078;47.822;9.402;2023-04-24T02:15:57;240.17;;;24.80;;
15958;SDS011;8078;47.822;9.402;2023-04-24T02:18:23;245.30;;;26.13;;
15958;SDS011;8078;47.822;9.402;2023-04-24T02:20:49;577.50;;;48.07;;
15958;SDS011;8078;47.822;9.402;2023-04-24T02:23:15;73.30;;;12.47;;
15958;SDS011;8078;47.822;9.402;2023-04-24T02:25:40;210.87;;;20.97;;
15958;SDS011;8078;47.822;9.402;2023-04-24T02:28:06;168.83;;;16.73;;
15958;SDS011;8078;47.822;9.402;2023-04-24T02:30:31;141.83;;;17.70;;
15958;SDS011;8078;47.822;9.402;2023-04-24T02:32:57;10.70;;;7.97;;
15958;SDS011;8078;47.822;9.402;2023-04-24T02:35:22;12.63;;;7.63;;
15958;SDS011;8078;47.822;9.402;2023-04-24T02:37:48;9.20;;;7.50;;
15958;SDS011;8078;47.822;9.402;2023-04-24T02:40:13;9.07;;;6.77;;
15958;SDS011;8078;47.822;9.402;2023-04-24T02:42:39;7.80;;;7.00;;
15958;SDS011;8078;47.822;9.402;2023-04-24T02:45:05;9.60;;;6.03;;
15958;SDS011;8078;47.822;9.402;2023-04-24T02:47:31;7.70;;;6.23;;
15958;SDS011;8078;47.822;9.402;2023-04-24T02:49:56;8.07;;;6.47;;
15958;SDS011;8078;47.822;9.402;2023-04-24T02:52:22;7.67;;;5.67;;
15958;SDS011;8078;47.822;9.402;2023-04-24T02:54:48;6.27;;;5.67;;
15958;SDS011;8078;47.822;9.402;2023-04-24T02:57:13;8.17;;;5.37;;
15958;SDS011;8078;47.822;9.402;2023-04-24T02:59:39;6.70;;;5.83;;
15958;SDS011;8078;47.822;9.402;2023-04-24T03:02:05;8.33;;;6.37;;
15958;SDS011;8078;47.822;9.402;2023-04-24T03:04:31;7.40;;;5.30;;
15958;SDS011;8078;47.822;9.402;2023-04-24T03:06:57;8.73;;;6.30;;
15958;SDS011;8078;47.822;9.402;2023-04-24T03:09:22;8.47;;;6.80;;
15958;SDS011;8078;47.822;9.402;2023-04-24T03:11:48;8.37;;;6.30;;
15958;SDS011;8078;47.822;9.402;2023-04-24T03:14:14;8.13;;;6.50;;
15958;SDS011;8078;47.822;9.402;2023-04-24T03:16:40;19.53;;;6.27;;
15958;SDS011;8078;47.822;9.402;2023-04-24T03:19:06;206.20;;;16.87;;
15958;SDS011;8078;47.822;9.402;2023-04-24T03:21:31;145.47;;;14.67;;
15958;SDS011;8078;47.822;9.402;2023-04-24T03:23:57;98.70;;;10.83;;
15958;SDS011;8078;47.822;9.402;2023-04-24T03:26:23;39.60;;;8.47;;
15958;SDS011;8078;47.822;9.402;2023-04-24T03:28:48;228.60;;;16.07;;
15958;SDS011;8078;47.822;9.402;2023-04-24T03:31:14;409.33;;;27.30;;
15958;SDS011;8078;47.822;9.402;2023-04-24T03:33:40;20.97;;;6.63;;
15958;SDS011;8078;47.822;9.402;2023-04-24T03:36:06;239.83;;;16.97;;
15958;SDS011;8078;47.822;9.402;2023-04-24T03:38:32;6.13;;;4.60;;
15958;SDS011;8078;47.822;9.402;2023-04-24T03:40:57;5.67;;;3.73;;
15958;SDS011;8078;47.822;9.402;2023-04-24T03:43:23;4.70;;;3.50;;
15958;SDS011;8078;47.822;9.402;2023-04-24T03:45:48;4.03;;;3.60;;
15958;SDS011;8078;47.822;9.402;2023-04-24T03:48:14;3.40;;;3.07;;
15958;SDS011;8078;47.822;9.402;2023-04-24T03:50:39;3.63;;;3.33;;
15958;SDS011;8078;47.822;9.402;2023-04-24T03:53:06;4.87;;;3.73;;
15958;SDS011;8078;47.822;9.402;2023-04-24T03:55:31;6.90;;;3.40;;
15958;SDS011;8078;47.822;9.402;2023-04-24T03:57:57;5.50;;;3.80;;
15958;SDS011;8078;47.822;9.402;2023-04-24T04:00:23;4.70;;;3.33;;
15958;SDS011;8078;47.822;9.402;2023-04-24T04:02:48;5.00;;;4.50;;
15958;SDS011;8078;47.822;9.402;2023-04-24T04:05:14;6.97;;;4.80;;
15958;SDS011;8078;47.822;9.402;2023-04-24T04:07:39;5.27;;;3.70;;
15958;SDS011;8078;47.822;9.402;2023-04-24T04:10:05;7.73;;;4.93;;
15958;SDS011;8078;47.822;9.402;2023-04-24T04:12:32;11.80;;;4.90;;
15958;SDS011;8078;47.822;9.402;2023-04-24T04:14:57;8.20;;;4.30;;
15958;SDS011;8078;47.822;9.402;2023-04-24T04:17:23;4.63;;;4.00;;
15958;SDS011;8078;47.822;9.402;2023-04-24T04:19:48;4.70;;;4.20;;
15958;SDS011;8078;47.822;9.402;2023-04-24T04:22:14;3.83;;;3.50;;
15958;SDS011;8078;47.822;9.402;2023-04-24T04:24:40;5.73;;;3.33;;
15958;SDS011;8078;47.822;9.402;2023-04-24T04:27:05;3.57;;;3.13;;
15958;SDS011;8078;47.822;9.402;2023-04-24T04:29:33;2.70;;;2.50;;
15958;SDS011;8078;47.822;9.402;2023-04-24T04:32:00;3.10;;;2.80;;
15958;SDS011;8078;47.822;9.402;2023-04-24T04:34:27;2.97;;;2.70;;
15958;SDS011;8078;47.822;9.402;2023-04-24T04:36:53;2.60;;;2.40;;
15958;SDS011;8078;47.822;9.402;2023-04-24T04:39:18;3.07;;;2.77;;
15958;SDS011;8078;47.822;9.402;2023-04-24T04:41:44;2.83;;;2.63;;
15958;SDS011;8078;47.822;9.402;2023-04-24T04:44:13;2.83;;;2.60;;
15958;SDS011;8078;47.822;9.402;2023-04-24T04:46:39;4.27;;;3.03;;
15958;SDS011;8078;47.822;9.402;2023-04-24T04:49:06;3.23;;;2.93;;
15958;SDS011;8078;47.822;9.402;2023-04-24T04:51:33;3.53;;;3.23;;
15958;SDS011;8078;47.822;9.402;2023-04-24T04:53:59;3.37;;;3.07;;
15958;SDS011;8078;47.822;9.402;2023-04-24T04:56:25;3.10;;;2.90;;
15958;SDS011;8078;47.822;9.402;2023-04-24T04:58:51;2.93;;;2.67;;
15958;SDS011;8078;47.822;9.402;2023-04-24T05:01:16;2.70;;;2.30;;
15958;SDS011;8078;47.822;9.402;2023-04-24T05:03:42;2.70;;;2.50;;
15958;SDS011;8078;47.822;9.402;2023-04-24T05:06:08;2.53;;;2.20;;
15958;SDS011;8078;47.822;9.402;2023-04-24T05:08:33;2.50;;;2.30;;
15958;SDS011;8078;47.822;9.402;2023-04-24T05:10:59;2.50;;;2.10;;
15958;SDS011;8078;47.822;9.402;2023-04-24T05:13:25;3.27;;;2.43;;
15958;SDS011;8078;47.822;9.402;2023-04-24T05:15:51;3.80;;;2.40;;
15958;SDS011;8078;47.822;9.402;2023-04-24T05:18:16;4.60;;;2.30;;
15958;SDS011;8078;47.822;9.402;2023-04-24T05:20:42;4.43;;;2.60;;
15958;SDS011;8078;47.822;9.402;2023-04-24T05:23:09;23.67;;;3.70;;
15958;SDS011;8078;47.822;9.402;2023-04-24T05:25:34;2.67;;;2.27;;
15958;SDS011;8078;47.822;9.402;2023-04-24T05:28:01;112.83;;;8.03;;
15958;SDS011;8078;47.822;9.402;2023-04-24T05:30:27;2.50;;;2.30;;
15958;SDS011;8078;47.822;9.402;2023-04-24T05:32:52;3.37;;;2.17;;
15958;SDS011;8078;47.822;9.402;2023-04-24T05:35:18;2.90;;;2.60;;
15958;SDS011;8078;47.822;9.402;2023-04-24T05:37:44;118.07;;;8.97;;
15958;SDS011;8078;47.822;9.402;2023-04-24T05:40:10;2.90;;;2.70;;
15958;SDS011;8078;47.822;9.402;2023-04-24T05:42:36;12.60;;;3.60;;
15958;SDS011;8078;47.822;9.402;2023-04-24T05:45:01;294.90;;;18.93;;
15958;SDS011;8078;47.822;9.402;2023-04-24T05:47:27;364.87;;;22.70;;
15958;SDS011;8078;47.822;9.402;2023-04-24T05:49:53;37.13;;;5.47;;
15958;SDS011;8078;47.822;9.402;2023-04-24T05:52:18;24.20;;;4.70;;
15958;SDS011;8078;47.822;9.402;2023-04-24T05:54:44;431.27;;;28.07;;
15958;SDS011;8078;47.822;9.402;2023-04-24T05:57:10;3.37;;;2.80;;
15958;SDS011;8078;47.822;9.402;2023-04-24T05:59:40;104.63;;;8.07;;
15958;SDS011;8078;47.822;9.402;2023-04-24T06:02:06;419.33;;;25.47;;
15958;SDS011;8078;47.822;9.402;2023-04-24T06:04:32;15.90;;;4.07;;
15958;SDS011;8078;47.822;9.402;2023-04-24T06:06:58;233.43;;;18.43;;
15958;SDS011;8078;47.822;9.402;2023-04-24T06:09:24;328.83;;;21.53;;
15958;SDS011;8078;47.822;9.402;2023-04-24T06:11:50;535.30;;;36.97;;
15958;SDS011;8078;47.822;9.402;2023-04-24T06:14:18;354.13;;;18.97;;
15958;SDS011;8078;47.822;9.402;2023-04-24T06:16:44;356.20;;;20.53;;
15958;SDS011;8078;47.822;9.402;2023-04-24T06:19:09;284.93;;;18.43;;
15958;SDS011;8078;47.822;9.402;2023-04-24T06:21:35;423.77;;;27.37;;
15958;SDS011;8078;47.822;9.402;2023-04-24T06:24:01;408.40;;;19.80;;
15958;SDS011;8078;47.822;9.402;2023-04-24T06:26:27;340.37;;;20.87;;
15958;SDS011;8078;47.822;9.402;2023-04-24T06:28:52;504.70;;;29.43;;
15958;SDS011;8078;47.822;9.402;2023-04-24T06:31:21;397.43;;;20.70;;
15958;SDS011;8078;47.822;9.402;2023-04-24T06:33:48;436.60;;;32.27;;
15958;SDS011;8078;47.822;9.402;2023-04-24T06:36:14;446.17;;;28.13;;
15958;SDS011;8078;47.822;9.402;2023-04-24T06:38:40;529.23;;;34.23;;
15958;SDS011;8078;47.822;9.402;2023-04-24T06:41:06;468.13;;;29.57;;
15958;SDS011;8078;47.822;9.402;2023-04-24T06:43:32;28.27;;;6.03;;
15958;SDS011;8078;47.822;9.402;2023-04-24T06:45:58;12.87;;;5.17;;
15958;SDS011;8078;47.822;9.402;2023-04-24T06:48:25;6.00;;;4.30;;
15958;SDS011;8078;47.822;9.402;2023-04-24T06:50:50;36.83;;;6.70;;
15958;SDS011;8078;47.822;9.402;2023-04-24T06:53:17;5.80;;;4.97;;
15958;SDS011;8078;47.822;9.402;2023-04-24T06:55:42;189.17;;;16.90;;
15958;SDS011;8078;47.822;9.402;2023-04-24T06:58:09;6.83;;;5.23;;
15958;SDS011;8078;47.822;9.402;2023-04-24T07:00:35;108.67;;;10.83;;
15958;SDS011;8078;47.822;9.402;2023-04-24T07:03:01;6.20;;;4.50;;
15958;SDS011;8078;47.822;9.402;2023-04-24T07:05:27;7.43;;;5.73;;
15958;SDS011;8078;47.822;9.402;2023-04-24T07:07:53;5.80;;;5.20;;
15958;SDS011;8078;47.822;9.402;2023-04-24T07:10:18;8.20;;;5.50;;
15958;SDS011;8078;47.822;9.402;2023-04-24T07:12:45;7.70;;;5.40;;
15958;SDS011;8078;47.822;9.402;2023-04-24T07:15:11;5.57;;;4.87;;
15958;SDS011;8078;47.822;9.402;2023-04-24T07:17:37;6.40;;;5.03;;
15958;SDS011;8078;47.822;9.402;2023-04-24T07:20:03;8.13;;;4.97;;
15958;SDS011;8078;47.822;9.402;2023-04-24T07:22:30;3.93;;;3.53;;
15958;SDS011;8078;47.822;9.402;2023-04-24T07:24:56;4.70;;;3.97;;
15958;SDS011;8078;47.822;9.402;2023-04-24T07:27:21;6.63;;;4.30;;
15958;SDS011;8078;47.822;9.402;2023-04-24T07:29:47;6.23;;;4.00;;
15958;SDS011;8078;47.822;9.402;2023-04-24T07:32:13;5.00;;;3.93;;
15958;SDS011;8078;47.822;9.402;2023-04-24T07:34:38;4.23;;;3.83;;
15958;SDS011;8078;47.822;9.402;2023-04-24T07:37:04;4.07;;;3.67;;
15958;SDS011;8078;47.822;9.402;2023-04-24T07:39:30;3.63;;;3.33;;
15958;SDS011;8078;47.822;9.402;2023-04-24T07:41:55;5.67;;;4.40;;
15958;SDS011;8078;47.822;9.402;2023-04-24T07:44:21;5.87;;;3.27;;
15958;SDS011;8078;47.822;9.402;2023-04-24T07:46:47;4.57;;;4.17;;
15958;SDS011;8078;47.822;9.402;2023-04-24T07:49:12;4.40;;;4.00;;
15958;SDS011;8078;47.822;9.402;2023-04-24T07:51:38;4.63;;;3.53;;
15958;SDS011;8078;47.822;9.402;2023-04-24T07:54:04;4.70;;;3.50;;
15958;SDS011;8078;47.822;9.402;2023-04-24T07:56:33;5.23;;;3.27;;
15958;SDS011;8078;47.822;9.402;2023-04-24T07:58:58;3.70;;;3.20;;
15958;SDS011;8078;47.822;9.402;2023-04-24T08:01:26;3.93;;;3.53;;
15958;SDS011;8078;47.822;9.402;2023-04-24T08:03:51;7.23;;;4.10;;
15958;SDS011;8078;47.822;9.402;2023-04-24T08:06:17;5.57;;;4.47;;
15958;SDS011;8078;47.822;9.402;2023-04-24T08:08:43;5.90;;;4.10;;
15958;SDS011;8078;47.822;9.402;2023-04-24T08:11:08;6.30;;;4.40;;
15958;SDS011;8078;47.822;9.402;2023-04-24T08:13:34;4.70;;;3.80;;
15958;SDS011;8078;47.822;9.402;2023-04-24T08:16:00;7.87;;;4.00;;
15958;SDS011;8078;47.822;9.402;2023-04-24T08:18:25;4.20;;;3.80;;
15958;SDS011;8078;47.822;9.402;2023-04-24T08:20:51;4.13;;;3.53;;
15958;SDS011;8078;47.822;9.402;2023-04-24T08:23:16;6.40;;;3.70;;
15958;SDS011;8078;47.822;9.402;2023-04-24T08:25:42;3.90;;;3.30;;
15958;SDS011;8078;47.822;9.402;2023-04-24T08:28:08;4.77;;;2.93;;
15958;SDS011;8078;47.822;9.402;2023-04-24T08:30:34;6.83;;;3.23;;
15958;SDS011;8078;47.822;9.402;2023-04-24T08:33:00;4.00;;;3.17;;
15958;SDS011;8078;47.822;9.402;2023-04-24T08:35:25;3.70;;;3.20;;
15958;SDS011;8078;47.822;9.402;2023-04-24T08:37:52;3.50;;;3.20;;
15958;SDS011;8078;47.822;9.402;2023-04-24T08:40:18;3.73;;;3.40;;
15958;SDS011;8078;47.822;9.402;2023-04-24T08:42:51;3.80;;;3.37;;
15958;SDS011;8078;47.822;9.402;2023-04-24T08:45:20;3.57;;;2.80;;
15958;SDS011;8078;47.822;9.402;2023-04-24T08:47:46;4.07;;;3.30;;
15958;SDS011;8078;47.822;9.402;2023-04-24T08:50:12;3.20;;;2.90;;
15958;SDS011;8078;47.822;9.402;2023-04-24T08:52:38;3.97;;;3.00;;
15958;SDS011;8078;47.822;9.402;2023-04-24T08:55:04;3.03;;;2.80;;
15958;SDS011;8078;47.822;9.402;2023-04-24T08:57:30;4.97;;;3.33;;
15958;SDS011;8078;47.822;9.402;2023-04-24T08:59:57;4.87;;;3.50;;
15958;SDS011;8078;47.822;9.402;2023-04-24T09:02:23;3.53;;;2.90;;
15958;SDS011;8078;47.822;9.402;2023-04-24T09:04:50;4.50;;;2.60;;
15958;SDS011;8078;47.822;9.402;2023-04-24T09:07:17;3.00;;;2.63;;
15958;SDS011;8078;47.822;9.402;2023-04-24T09:09:44;5.17;;;2.33;;
15958;SDS011;8078;47.822;9.402;2023-04-24T09:12:10;2.67;;;2.40;;
15958;SDS011;8078;47.822;9.402;2023-04-24T09:14:36;3.03;;;2.20;;
15958;SDS011;8078;47.822;9.402;2023-04-24T09:17:07;2.87;;;2.67;;
15958;SDS011;8078;47.822;9.402;2023-04-24T09:19:33;4.30;;;2.57;;
15958;SDS011;8078;47.822;9.402;2023-04-24T09:21:58;6.00;;;2.90;;
15958;SDS011;8078;47.822;9.402;2023-04-24T09:24:24;2.53;;;2.33;;
15958;SDS011;8078;47.822;9.402;2023-04-24T09:26:57;2.23;;;2.00;;
15958;SDS011;8078;47.822;9.402;2023-04-24T09:29:24;2.30;;;2.10;;
15958;SDS011;8078;47.822;9.402;2023-04-24T09:31:50;2.77;;;2.40;;
15958;SDS011;8078;47.822;9.402;2023-04-24T09:34:19;4.80;;;2.03;;
15958;SDS011;8078;47.822;9.402;2023-04-24T09:36:50;2.47;;;2.27;;
15958;SDS011;8078;47.822;9.402;2023-04-24T09:39:16;4.07;;;2.23;;
15958;SDS011;8078;47.822;9.402;2023-04-24T09:44:16;2.43;;;2.23;;
15958;SDS011;8078;47.822;9.402;2023-04-24T09:46:48;4.50;;;2.30;;
15958;SDS011;8078;47.822;9.402;2023-04-24T09:49:16;2.20;;;2.00;;
15958;SDS011;8078;47.822;9.402;2023-04-24T09:51:46;2.20;;;2.00;;
15958;SDS011;8078;47.822;9.402;2023-04-24T09:54:19;2.97;;;2.20;;
15958;SDS011;8078;47.822;9.402;2023-04-24T09:56:46;2.20;;;2.00;;
15958;SDS011;8078;47.822;9.402;2023-04-24T09:59:14;2.23;;;1.90;;
15958;SDS011;8078;47.822;9.402;2023-04-24T10:01:41;2.10;;;1.90;;
15958;SDS011;8078;47.822;9.402;2023-04-24T10:04:17;2.40;;;1.87;;
15958;SDS011;8078;47.822;9.402;2023-04-24T10:06:48;2.30;;;2.00;;
15958;SDS011;8078;47.822;9.402;2023-04-24T10:09:15;2.10;;;1.90;;
15958;SDS011;8078;47.822;9.402;2023-04-24T10:11:42;2.50;;;1.90;;
15958;SDS011;8078;47.822;9.402;2023-04-24T10:14:17;2.83;;;1.90;;
15958;SDS011;8078;47.822;9.402;2023-04-24T10:16:44;4.43;;;2.00;;
15958;SDS011;8078;47.822;9.402;2023-04-24T10:19:11;1.90;;;1.80;;
15958;SDS011;8078;47.822;9.402;2023-04-24T10:21:38;2.23;;;1.70;;
15958;SDS011;8078;47.822;9.402;2023-04-24T10:24:07;3.07;;;1.70;;
15958;SDS011;8078;47.822;9.402;2023-04-24T10:26:33;1.90;;;1.70;;
15958;SDS011;8078;47.822;9.402;2023-04-24T10:29:00;2.20;;;1.87;;
15958;SDS011;8078;47.822;9.402;2023-04-24T10:31:27;2.17;;;1.97;;
15958;SDS011;8078;47.822;9.402;2023-04-24T10:33:55;3.60;;;2.20;;
15958;SDS011;8078;47.822;9.402;2023-04-24T10:36:23;2.10;;;1.90;;
15958;SDS011;8078;47.822;9.402;2023-04-24T10:38:51;2.87;;;1.87;;
15958;SDS011;8078;47.822;9.402;2023-04-24T10:41:20;2.23;;;1.70;;
15958;SDS011;8078;47.822;9.402;2023-04-24T10:43:48;3.47;;;2.07;;
15958;SDS011;8078;47.822;9.402;2023-04-24T10:46:29;3.97;;;2.00;;
15958;SDS011;8078;47.822;9.402;2023-04-24T10:48:55;2.33;;;1.90;;
15958;SDS011;8078;47.822;9.402;2023-04-24T10:51:23;1.90;;;1.70;;
15958;SDS011;8078;47.822;9.402;2023-04-24T10:54:29;3.37;;;1.70;;
15958;SDS011;8078;47.822;9.402;2023-04-24T10:57:32;2.67;;;1.83;;
15958;SDS011;8078;47.822;9.402;2023-04-24T11:02:45;3.67;;;1.93;;
15958;SDS011;8078;47.822;9.402;2023-04-24T11:05:14;3.33;;;2.03;;
15958;SDS011;8078;47.822;9.402;2023-04-24T11:10:50;6.27;;;2.30;;
15958;SDS011;8078;47.822;9.402;2023-04-24T11:18:52;4.73;;;2.40;;
15958;SDS011;8078;47.822;9.402;2023-04-24T11:21:24;2.37;;;2.00;;
15958;SDS011;8078;47.822;9.402;2023-04-24T11:23:51;3.57;;;1.93;;
15958;SDS011;8078;47.822;9.402;2023-04-24T11:26:17;2.40;;;2.00;;
15958;SDS011;8078;47.822;9.402;2023-04-24T11:28:48;2.43;;;1.93;;
15958;SDS011;8078;47.822;9.402;2023-04-24T11:31:35;2.40;;;1.60;;
15958;SDS011;8078;47.822;9.402;2023-04-24T11:34:13;2.70;;;1.67;;
15958;SDS011;8078;47.822;9.402;2023-04-24T11:36:43;3.70;;;2.07;;
15958;SDS011;8078;47.822;9.402;2023-04-24T11:39:09;2.90;;;1.83;;
15958;SDS011;8078;47.822;9.402;2023-04-24T11:41:36;2.10;;;1.90;;
15958;SDS011;8078;47.822;9.402;2023-04-24T11:44:02;2.37;;;2.10;;
15958;SDS011;8078;47.822;9.402;2023-04-24T11:46:30;2.43;;;1.90;;
15958;SDS011;8078;47.822;9.402;2023-04-24T11:48:57;2.10;;;1.90;;
15958;SDS011;8078;47.822;9.402;2023-04-24T11:51:23;4.10;;;1.97;;
15958;SDS011;8078;47.822;9.402;2023-04-24T11:53:55;2.20;;;2.00;;
15958;SDS011;8078;47.822;9.402;2023-04-24T11:56:24;2.37;;;2.17;;
15958;SDS011;8078;47.822;9.402;2023-04-24T11:58:53;2.00;;;1.80;;
15958;SDS011;8078;47.822;9.402;2023-04-24T12:01:19;2.53;;;1.70;;
15958;SDS011;8078;47.822;9.402;2023-04-24T12:03:49;4.00;;;1.80;;
15958;SDS011;8078;47.822;9.402;2023-04-24T12:06:16;2.33;;;2.00;;
15958;SDS011;8078;47.822;9.402;2023-04-24T12:08:45;2.07;;;1.83;;
15958;SDS011;8078;47.822;9.402;2023-04-24T12:11:14;2.57;;;1.90;;
15958;SDS011;8078;47.822;9.402;2023-04-24T12:13:41;2.13;;;1.90;;
15958;SDS011;8078;47.822;9.402;2023-04-24T12:16:06;3.47;;;1.80;;
15958;SDS011;8078;47.822;9.402;2023-04-24T12:18:32;1.73;;;1.63;;
15958;SDS011;8078;47.822;9.402;2023-04-24T12:23:46;1.97;;;1.87;;
15958;SDS011;8078;47.822;9.402;2023-04-24T12:26:16;3.00;;;1.80;;
15958;SDS011;8078;47.822;9.402;2023-04-24T12:28:45;1.67;;;1.57;;
15958;SDS011;8078;47.822;9.402;2023-04-24T12:31:12;2.13;;;1.70;;
15958;SDS011;8078;47.822;9.402;2023-04-24T12:33:38;2.00;;;1.70;;
15958;SDS011;8078;47.822;9.402;2023-04-24T12:36:04;6.13;;;1.70;;
15958;SDS011;8078;47.822;9.402;2023-04-24T12:38:31;2.40;;;1.93;;
15958;SDS011;8078;47.822;9.402;2023-04-24T12:41:14;3.40;;;2.63;;
15958;SDS011;8078;47.822;9.402;2023-04-24T12:43:50;1.67;;;1.57;;
15958;SDS011;8078;47.822;9.402;2023-04-24T12:46:17;1.80;;;1.70;;
15958;SDS011;8078;47.822;9.402;2023-04-24T12:48:42;2.43;;;1.90;;
15958;SDS011;8078;47.822;9.402;2023-04-24T12:51:08;2.63;;;2.03;;
15958;SDS011;8078;47.822;9.402;2023-04-24T12:53:33;3.47;;;2.03;;
15958;SDS011;8078;47.822;9.402;2023-04-24T12:55:59;2.97;;;2.17;;
15958;SDS011;8078;47.822;9.402;2023-04-24T12:58:24;5.47;;;2.23;;
15958;SDS011;8078;47.822;9.402;2023-04-24T13:00:50;4.27;;;2.57;;
15958;SDS011;8078;47.822;9.402;2023-04-24T13:03:16;2.13;;;1.80;;
15958;SDS011;8078;47.822;9.402;2023-04-24T13:05:43;2.60;;;1.87;;
15958;SDS011;8078;47.822;9.402;2023-04-24T13:08:08;2.00;;;1.80;;
15958;SDS011;8078;47.822;9.402;2023-04-24T13:10:34;2.93;;;1.97;;
15958;SDS011;8078;47.822;9.402;2023-04-24T13:13:00;4.47;;;2.00;;
15958;SDS011;8078;47.822;9.402;2023-04-24T13:15:26;3.20;;;2.00;;
15958;SDS011;8078;47.822;9.402;2023-04-24T13:17:51;2.43;;;1.83;;
15958;SDS011;8078;47.822;9.402;2023-04-24T13:20:17;5.27;;;2.10;;
15958;SDS011;8078;47.822;9.402;2023-04-24T13:22:43;2.00;;;1.80;;
15958;SDS011;8078;47.822;9.402;2023-04-24T13:25:08;4.57;;;2.30;;
15958;SDS011;8078;47.822;9.402;2023-04-24T13:27:35;4.97;;;2.00;;
15958;SDS011;8078;47.822;9.402;2023-04-24T13:30:03;1.80;;;1.70;;
15958;SDS011;8078;47.822;9.402;2023-04-24T13:32:29;4.17;;;1.80;;
15958;SDS011;8078;47.822;9.402;2023-04-24T13:34:54;2.67;;;1.80;;
15958;SDS011;8078;47.822;9.402;2023-04-24T13:37:21;4.47;;;1.97;;
15958;SDS011;8078;47.822;9.402;2023-04-24T13:39:47;2.63;;;2.13;;
15958;SDS011;8078;47.822;9.402;2023-04-24T13:42:13;3.77;;;1.87;;
15958;SDS011;8078;47.822;9.402;2023-04-24T13:44:38;2.23;;;1.90;;
15958;SDS011;8078;47.822;9.402;2023-04-24T13:47:04;2.47;;;2.00;;
15958;SDS011;8078;47.822;9.402;2023-04-24T13:49:30;3.80;;;1.80;;
15958;SDS011;8078;47.822;9.402;2023-04-24T13:51:56;3.43;;;2.10;;
15958;SDS011;8078;47.822;9.402;2023-04-24T13:54:21;2.33;;;2.13;;
15958;SDS011;8078;47.822;9.402;2023-04-24T13:56:49;2.43;;;1.97;;
15958;SDS011;8078;47.822;9.402;2023-04-24T13:59:14;3.00;;;2.23;;
15958;SDS011;8078;47.822;9.402;2023-04-24T14:01:41;2.93;;;2.30;;
15958;SDS011;8078;47.822;9.402;2023-04-24T14:04:07;3.87;;;2.27;;
15958;SDS011;8078;47.822;9.402;2023-04-24T14:06:32;2.83;;;2.30;;
15958;SDS011;8078;47.822;9.402;2023-04-24T14:08:58;3.73;;;2.00;;
15958;SDS011;8078;47.822;9.402;2023-04-24T14:11:23;3.30;;;2.20;;
15958;SDS011;8078;47.822;9.402;2023-04-24T14:13:49;3.07;;;1.87;;
15958;SDS011;8078;47.822;9.402;2023-04-24T14:16:15;2.63;;;1.90;;
15958;SDS011;8078;47.822;9.402;2023-04-24T14:18:40;2.63;;;1.70;;
15958;SDS011;8078;47.822;9.402;2023-04-24T14:21:06;2.17;;;1.80;;
15958;SDS011;8078;47.822;9.402;2023-04-24T14:23:32;1.90;;;1.70;;
15958;SDS011;8078;47.822;9.402;2023-04-24T14:25:58;2.03;;;1.90;;
15958;SDS011;8078;47.822;9.402;2023-04-24T14:28:24;2.23;;;1.87;;
15958;SDS011;8078;47.822;9.402;2023-04-24T14:30:51;4.83;;;1.97;;
15958;SDS011;8078;47.822;9.402;2023-04-24T14:33:17;3.43;;;2.07;;
15958;SDS011;8078;47.822;9.402;2023-04-24T14:35:43;2.13;;;1.93;;
15958;SDS011;8078;47.822;9.402;2023-04-24T14:38:08;3.40;;;1.87;;
15958;SDS011;8078;47.822;9.402;2023-04-24T14:40:34;1.73;;;1.63;;
15958;SDS011;8078;47.822;9.402;2023-04-24T14:43:00;2.90;;;1.70;;
15958;SDS011;8078;47.822;9.402;2023-04-24T14:45:26;2.63;;;2.07;;
15958;SDS011;8078;47.822;9.402;2023-04-24T14:47:52;3.37;;;2.03;;
15958;SDS011;8078;47.822;9.402;2023-04-24T14:50:18;2.30;;;2.10;;
15958;SDS011;8078;47.822;9.402;2023-04-24T14:52:44;2.10;;;1.90;;
15958;SDS011;8078;47.822;9.402;2023-04-24T14:55:10;4.63;;;2.13;;
15958;SDS011;8078;47.822;9.402;2023-04-24T14:57:36;2.43;;;1.97;;
15958;SDS011;8078;47.822;9.402;2023-04-24T15:00:02;2.07;;;1.97;;
15958;SDS011;8078;47.822;9.402;2023-04-24T15:02:31;4.47;;;2.43;;
15958;SDS011;8078;47.822;9.402;2023-04-24T15:04:57;2.53;;;1.80;;